createdAt,value
2022-11-20T00:01:53.149Z,100392.73
2022-11-20T00:04:21.892Z,100390.74
2022-11-20T00:06:50.664Z,100395.66
2022-11-20T00:09:19.590Z,100398.92
2022-11-20T00:11:48.514Z,100395.42
2022-11-20T00:14:17.755Z,100398.83
2022-11-20T00:16:47.023Z,100404.02
2022-11-20T00:19:16.570Z,100395.59
2022-11-20T00:21:48.095Z,100403.36
2022-11-20T00:24:17.027Z,100396.69
2022-11-20T00:26:53.214Z,100393.35
2022-11-20T00:29:23.369Z,100385.09
2022-11-20T00:31:52.305Z,100381.83
2022-11-20T00:34:20.960Z,100382.00
2022-11-20T00:36:49.588Z,100382.92
2022-11-20T00:39:18.808Z,100382.23
2022-11-20T00:41:48.192Z,100380.71
2022-11-20T00:44:16.836Z,100380.88
2022-11-20T00:46:46.028Z,100379.36
2022-11-20T00:49:14.640Z,100383.72
2022-11-20T00:51:43.712Z,100367.66
2022-11-20T00:54:12.427Z,100373.77
2022-11-20T00:56:41.012Z,100365.28
2022-11-20T00:59:11.694Z,100367.95
2022-11-20T01:01:40.441Z,100363.02
2022-11-20T01:04:09.240Z,100363.13
2022-11-20T01:06:39.455Z,100357.30
2022-11-20T01:09:12.326Z,100354.82
2022-11-20T01:11:43.085Z,100350.62
2022-11-20T01:14:14.519Z,100348.14
2022-11-20T01:16:46.643Z,100353.23
2022-11-20T01:19:18.077Z,100345.59
2022-11-20T01:21:49.393Z,100348.94
2022-11-20T01:24:20.517Z,100342.19
2022-11-20T01:26:50.479Z,100343.91
2022-11-20T01:29:21.430Z,100332.81
2022-11-20T01:31:51.923Z,100337.10
2022-11-20T01:34:22.640Z,100338.82
2022-11-20T01:36:53.192Z,100343.12
2022-11-20T01:39:24.719Z,100331.19
2022-11-20T01:42:13.178Z,100329.47
2022-11-20T01:44:57.090Z,100330.17
2022-11-20T01:47:33.272Z,100335.25
2022-11-20T01:50:07.832Z,100328.52
2022-11-20T01:52:41.937Z,100337.00
2022-11-20T01:55:15.832Z,100337.90
2022-11-20T01:57:46.466Z,100342.26
2022-11-20T02:00:18.931Z,100342.41
2022-11-20T02:02:57.068Z,100351.86
2022-11-20T02:05:29.495Z,100353.68
2022-11-20T02:08:00.154Z,100357.18
2022-11-20T02:10:31.363Z,100348.75
2022-11-20T02:13:20.247Z,100347.06
2022-11-20T02:15:51.739Z,100341.17
2022-11-20T02:18:22.848Z,100341.27
2022-11-20T02:20:59.945Z,100342.98
2022-11-20T02:23:37.933Z,100339.74
2022-11-20T02:26:12.156Z,100343.24
2022-11-20T02:28:41.522Z,100332.23
2022-11-20T02:31:10.272Z,100342.51
2022-11-20T02:33:39.255Z,100335.83
2022-11-20T02:36:12.323Z,100339.23
2022-11-20T02:38:40.978Z,100342.73
2022-11-20T02:41:10.112Z,100339.38
2022-11-20T02:43:44.507Z,100336.04
2022-11-20T02:46:15.216Z,100338.59
2022-11-20T02:48:46.770Z,100335.24
2022-11-20T02:51:19.534Z,100337.79
2022-11-20T02:53:48.602Z,100334.35
2022-11-20T02:56:17.493Z,100332.70
2022-11-20T02:58:47.939Z,100332.70
2022-11-20T03:01:16.521Z,100331.74
2022-11-20T03:03:48.979Z,100332.55
2022-11-20T03:06:20.326Z,100331.59
2022-11-20T03:08:48.952Z,100322.20
2022-11-20T03:11:17.687Z,100330.58
2022-11-20T03:13:47.709Z,100327.97
2022-11-20T03:16:19.052Z,100327.81
2022-11-20T03:18:48.972Z,100329.24
2022-11-20T03:21:17.864Z,100329.91
2022-11-20T03:23:47.102Z,100321.23
2022-11-20T03:26:17.421Z,100319.35
2022-11-20T03:28:50.170Z,100317.38
2022-11-20T03:31:21.098Z,100322.31
2022-11-20T03:33:49.739Z,100320.43
2022-11-20T03:36:21.197Z,100320.27
2022-11-20T03:38:50.242Z,100318.30
2022-11-20T03:41:22.586Z,100324.91
2022-11-20T03:43:52.666Z,100317.91
2022-11-20T03:46:21.777Z,100314.41
2022-11-20T03:48:52.194Z,100309.98
2022-11-20T03:51:22.737Z,100307.28
2022-11-20T03:53:53.421Z,100305.36
2022-11-20T03:56:29.599Z,100308.56
2022-11-20T03:58:59.091Z,100314.28
2022-11-20T04:01:31.182Z,100310.72
2022-11-20T04:04:01.044Z,100305.40
2022-11-20T04:06:35.276Z,100309.36
2022-11-20T04:09:03.103Z,100308.41
2022-11-20T04:11:34.095Z,100304.80
2022-11-20T04:14:05.039Z,100302.88
2022-11-20T04:16:37.231Z,100309.48
2022-11-20T04:19:11.108Z,100310.99
2022-11-20T04:21:39.706Z,100312.51
2022-11-20T04:24:09.127Z,100314.09
2022-11-20T04:26:40.714Z,100319.86
2022-11-20T04:29:12.735Z,100316.39
2022-11-20T04:31:42.534Z,100316.22
2022-11-20T04:34:13.896Z,100316.94
2022-11-20T04:36:43.207Z,100324.39
2022-11-20T04:39:15.971Z,100308.19
2022-11-20T04:41:45.563Z,100311.45
2022-11-20T04:44:14.569Z,100307.09
2022-11-20T04:47:06.336Z,100308.56
2022-11-20T04:49:36.264Z,100303.34
2022-11-20T04:52:05.353Z,100298.09
2022-11-20T04:54:36.042Z,100298.81
2022-11-20T04:57:07.866Z,100301.25
2022-11-20T04:59:39.258Z,100303.72
2022-11-20T05:02:08.315Z,100301.11
2022-11-20T05:04:37.546Z,100302.69
2022-11-20T05:07:12.431Z,100298.33
2022-11-20T05:09:41.700Z,100301.66
2022-11-20T05:12:11.416Z,100306.56
2022-11-20T05:14:40.284Z,100301.30
2022-11-20T05:17:16.650Z,100302.02
2022-11-20T05:19:52.889Z,100294.23
2022-11-20T05:22:22.649Z,100297.41
2022-11-20T05:24:51.435Z,100298.02
2022-11-20T05:27:20.307Z,100296.27
2022-11-20T05:29:49.291Z,100297.06
2022-11-20T05:32:17.979Z,100291.91
2022-11-20T05:34:46.859Z,100283.33
2022-11-20T05:37:15.532Z,100283.16
2022-11-20T05:39:45.851Z,100280.55
2022-11-20T05:42:31.254Z,100277.05
2022-11-20T05:45:01.264Z,100278.55
2022-11-20T05:47:33.926Z,100276.80
2022-11-20T05:50:03.343Z,100281.69
2022-11-20T05:52:32.695Z,100287.41
2022-11-20T05:55:07.101Z,100291.52
2022-11-20T05:57:36.522Z,100280.41
2022-11-20T06:00:08.168Z,100282.05
2022-11-20T06:02:37.349Z,100282.05
2022-11-20T06:05:07.678Z,100273.50
2022-11-20T06:07:36.383Z,100276.04
2022-11-20T06:10:07.177Z,100270.08
2022-11-20T06:12:35.987Z,100265.89
2022-11-20T06:15:07.790Z,100270.08
2022-11-20T06:17:36.617Z,100277.80
2022-11-20T06:20:09.664Z,100272.72
2022-11-20T06:22:38.715Z,100265.97
2022-11-20T06:25:09.052Z,100266.03
2022-11-20T06:27:37.856Z,100268.67
2022-11-20T06:30:12.804Z,100264.46
2022-11-20T06:32:41.631Z,100262.71
2022-11-20T06:35:13.523Z,100258.59
2022-11-20T06:37:43.305Z,100259.56
2022-11-20T06:40:15.395Z,100257.03
2022-11-20T06:42:44.144Z,100257.09
2022-11-20T06:45:13.122Z,100269.00
2022-11-20T06:47:42.973Z,100268.28
2022-11-20T06:50:12.946Z,100263.31
2022-11-20T06:52:43.748Z,100260.95
2022-11-20T06:55:12.719Z,100269.50
2022-11-20T06:57:43.763Z,100266.28
2022-11-20T07:00:16.398Z,100263.87
2022-11-20T07:02:45.280Z,100253.73
2022-11-20T07:05:14.358Z,100252.15
2022-11-20T07:07:47.146Z,100251.43
2022-11-20T07:10:16.203Z,100242.34
2022-11-20T07:12:52.051Z,100243.38
2022-11-20T07:15:24.771Z,100242.72
2022-11-20T07:17:57.122Z,100245.54
2022-11-20T07:20:28.685Z,100244.03
2022-11-20T07:22:58.319Z,100240.84
2022-11-20T07:25:31.768Z,100241.18
2022-11-20T07:28:00.979Z,100236.41
2022-11-20T07:30:31.889Z,100246.02
2022-11-20T07:33:00.609Z,100251.43
2022-11-20T07:35:31.444Z,100252.52
2022-11-20T07:38:02.161Z,100250.39
2022-11-20T07:40:30.962Z,100249.83
2022-11-20T07:42:59.796Z,100242.59
2022-11-20T07:45:29.276Z,100247.16
2022-11-20T07:47:57.976Z,100244.14
2022-11-20T07:50:28.803Z,100241.96
2022-11-20T07:53:03.803Z,100241.48
2022-11-20T07:55:34.083Z,100239.23
2022-11-20T07:58:02.808Z,100230.30
2022-11-20T08:00:31.459Z,100231.47
2022-11-20T08:03:00.134Z,100231.79
2022-11-20T08:05:29.493Z,100233.76
2022-11-20T08:07:59.725Z,100232.29
2022-11-20T08:10:28.750Z,100228.47
2022-11-20T08:13:15.672Z,100225.39
2022-11-20T08:15:50.561Z,100223.06
2022-11-20T08:18:37.195Z,100225.42
2022-11-20T08:21:07.192Z,100214.09
2022-11-20T08:23:42.339Z,100215.23
2022-11-20T08:26:11.188Z,100216.09
2022-11-20T08:28:39.895Z,100220.58
2022-11-20T08:31:10.182Z,100221.11
2022-11-20T08:33:39.378Z,100212.38
2022-11-20T08:36:09.133Z,100216.25
2022-11-20T08:38:37.821Z,100223.34
2022-11-20T08:41:39.002Z,100214.31
2022-11-20T08:44:09.171Z,100212.08
2022-11-20T08:46:52.400Z,100199.37
2022-11-20T08:49:23.798Z,100187.00
2022-11-20T08:51:55.579Z,100177.24
2022-11-20T08:54:24.462Z,100174.77
2022-11-20T08:56:53.205Z,100176.74
2022-11-20T09:02:12.967Z,100178.08
2022-11-20T09:04:43.436Z,100179.94
2022-11-20T09:07:14.332Z,100169.90
2022-11-20T09:09:44.183Z,100169.98
2022-11-20T09:12:12.986Z,100163.22
2022-11-20T09:14:41.717Z,100163.39
2022-11-20T09:17:14.121Z,100171.25
2022-11-20T09:19:43.308Z,100168.91
2022-11-20T09:22:13.581Z,100164.09
2022-11-20T09:24:49.733Z,100167.78
2022-11-20T09:27:21.278Z,100165.47
2022-11-20T09:29:51.290Z,100163.23
2022-11-20T09:32:22.640Z,100160.11
2022-11-20T09:34:51.393Z,100164.73
2022-11-20T09:37:20.136Z,100158.60
2022-11-20T09:39:49.098Z,100142.74
2022-11-20T09:42:38.024Z,100138.16
2022-11-20T09:45:24.220Z,100145.50
2022-11-20T09:48:09.954Z,100142.63
2022-11-20T09:50:44.828Z,100137.67
2022-11-20T09:53:22.112Z,100141.09
2022-11-20T09:55:51.578Z,100129.73
2022-11-20T09:58:30.725Z,100123.45
2022-11-20T10:01:10.033Z,100125.98
2022-11-20T10:03:46.895Z,100117.21
2022-11-20T10:06:22.298Z,100127.40
2022-11-20T10:09:02.517Z,100123.74
2022-11-20T10:11:45.980Z,100116.75
2022-11-20T10:14:28.024Z,100111.42
2022-11-20T10:17:09.166Z,100119.92
2022-11-20T10:19:56.122Z,100111.80
2022-11-20T10:22:45.819Z,100114.40
2022-11-20T10:25:18.846Z,100110.02
2022-11-20T10:28:00.980Z,100102.20
2022-11-20T10:30:31.191Z,100100.45
2022-11-20T10:33:05.527Z,100093.52
2022-11-20T10:35:40.166Z,100093.66
2022-11-20T10:38:17.509Z,100092.98
2022-11-20T10:40:49.801Z,100088.91
2022-11-20T10:43:32.986Z,100093.48
2022-11-20T10:46:06.060Z,100095.51
2022-11-20T10:48:37.414Z,100095.72
2022-11-20T10:51:19.079Z,100098.69
2022-11-20T10:54:10.769Z,100096.19
2022-11-20T10:56:48.327Z,100092.69
2022-11-20T10:59:45.126Z,100098.58
2022-11-20T11:02:21.990Z,100088.81
2022-11-20T11:04:52.348Z,100094.51
2022-11-20T11:07:25.560Z,100090.82
2022-11-20T11:09:56.720Z,100096.53
2022-11-20T11:12:29.223Z,100096.15
2022-11-20T11:14:58.794Z,100094.06
2022-11-20T11:17:41.201Z,100099.82
2022-11-20T11:20:18.356Z,100096.92
2022-11-20T11:22:49.564Z,100099.19
2022-11-20T11:25:25.036Z,100098.02
2022-11-20T11:28:00.433Z,100091.66
2022-11-20T11:30:41.175Z,100089.64
2022-11-20T11:33:13.234Z,100091.99
2022-11-20T11:35:51.171Z,100090.00
2022-11-20T11:38:30.618Z,100091.52
2022-11-20T11:40:59.789Z,100093.06
2022-11-20T11:43:51.854Z,100085.21
2022-11-20T11:46:33.464Z,100080.77
2022-11-20T11:49:16.911Z,100073.81
2022-11-20T11:52:00.160Z,100079.59
2022-11-20T11:54:35.721Z,100069.31
2022-11-20T11:57:13.576Z,100073.57
2022-11-20T11:59:59.068Z,100070.09
2022-11-20T12:02:50.048Z,100060.61
2022-11-20T12:05:24.279Z,100059.78
2022-11-20T12:07:57.495Z,100053.81
2022-11-20T12:10:41.474Z,100059.04
2022-11-20T12:13:23.463Z,100057.25
2022-11-20T12:15:52.589Z,100052.91
2022-11-20T12:18:23.413Z,100046.78
2022-11-20T12:21:12.489Z,100052.76
2022-11-20T12:23:53.380Z,100043.31
2022-11-20T12:26:36.369Z,100041.55
2022-11-20T12:29:13.076Z,100035.48
2022-11-20T12:32:20.948Z,100036.30
2022-11-20T12:35:11.134Z,100033.59
2022-11-20T12:37:54.432Z,100029.23
2022-11-20T12:40:36.578Z,100023.14
2022-11-20T12:43:35.851Z,100023.98
2022-11-20T12:46:23.364Z,100025.67
2022-11-20T12:49:24.508Z,100023.86
2022-11-20T12:52:09.988Z,100016.77
2022-11-20T12:55:02.788Z,100014.85
2022-11-20T12:57:50.883Z,100019.89
2022-11-20T13:00:23.303Z,100012.94
2022-11-20T13:03:27.668Z,100000.86
2022-11-20T13:06:06.245Z,99998.97
2022-11-20T13:08:37.601Z,99998.06
2022-11-20T13:11:15.710Z,99994.50
2022-11-20T13:14:00.295Z,99991.81
2022-11-20T13:16:35.606Z,99989.99
2022-11-20T13:19:12.906Z,99992.61
2022-11-20T13:21:50.819Z,99987.48
2022-11-20T13:24:27.104Z,99980.62
2022-11-20T13:27:05.123Z,99985.66
2022-11-20T13:29:38.369Z,99987.32
2022-11-20T13:32:17.086Z,99976.15
2022-11-20T13:34:56.263Z,99980.30
2022-11-20T13:37:37.287Z,99981.05
2022-11-20T13:40:23.385Z,99987.74
2022-11-20T13:43:05.016Z,99985.95
2022-11-20T13:45:34.683Z,99979.89
2022-11-20T13:48:19.699Z,99977.18
2022-11-20T13:50:59.706Z,99972.00
2022-11-20T13:54:10.562Z,99970.15
2022-11-20T13:56:57.635Z,99962.37
2022-11-20T13:59:49.710Z,99962.34
2022-11-20T14:02:21.802Z,99953.66
2022-11-20T14:04:54.078Z,99956.20
2022-11-20T14:07:29.590Z,99960.38
2022-11-20T14:09:58.904Z,99952.61
2022-11-20T14:12:31.826Z,99950.78
2022-11-20T14:15:01.274Z,99954.14
2022-11-20T14:17:33.961Z,99948.11
2022-11-20T14:20:23.453Z,99956.59
2022-11-20T14:22:52.954Z,99957.41
2022-11-20T14:25:23.835Z,99959.95
2022-11-20T14:27:55.529Z,99953.91
2022-11-20T14:30:26.621Z,99954.67
2022-11-20T14:33:01.243Z,99951.23
2022-11-20T14:35:34.512Z,99948.58
2022-11-20T14:38:04.532Z,99942.55
2022-11-20T14:40:36.081Z,99934.77
2022-11-20T14:43:19.827Z,99939.89
2022-11-20T14:45:55.828Z,99949.25
2022-11-20T14:48:30.418Z,99938.09
2022-11-20T14:50:59.396Z,99938.09
2022-11-20T14:53:28.169Z,99934.63
2022-11-20T14:56:01.283Z,99932.05
2022-11-20T14:58:33.877Z,99931.14
2022-11-20T15:01:05.344Z,99929.38
2022-11-20T15:03:35.956Z,99928.47
2022-11-20T15:06:05.474Z,99923.25
2022-11-20T15:08:35.155Z,99929.14
2022-11-20T15:11:17.570Z,99937.58
2022-11-20T15:13:46.659Z,99931.52
2022-11-20T15:16:21.166Z,99927.98
2022-11-20T15:18:50.994Z,99938.09
2022-11-20T15:21:23.018Z,99937.08
2022-11-20T15:23:52.696Z,99932.75
2022-11-20T15:26:26.284Z,99939.48
2022-11-20T15:28:56.306Z,99943.62
2022-11-20T15:31:25.553Z,99948.61
2022-11-20T15:33:54.793Z,99947.73
2022-11-20T15:36:23.602Z,99949.27
2022-11-20T15:38:52.523Z,99939.72
2022-11-20T15:41:21.191Z,99925.88
2022-11-20T15:43:50.453Z,99931.66
2022-11-20T15:46:27.774Z,99923.75
2022-11-20T15:49:15.767Z,99926.07
2022-11-20T15:51:48.122Z,99930.20
2022-11-20T15:54:20.786Z,99934.29
2022-11-20T15:56:57.310Z,99933.30
2022-11-20T15:59:26.190Z,99926.23
2022-11-20T16:01:55.402Z,99926.09
2022-11-20T16:04:24.419Z,99919.10
2022-11-20T16:06:53.468Z,99918.14
2022-11-20T16:09:22.101Z,99909.45
2022-11-20T16:11:51.450Z,99916.16
2022-11-20T16:14:38.902Z,99916.02
2022-11-20T16:17:07.599Z,99908.16
2022-11-20T16:19:37.174Z,99922.50
2022-11-20T16:22:05.923Z,99915.58
2022-11-20T16:24:34.903Z,99918.84
2022-11-20T16:27:03.820Z,99917.84
2022-11-20T16:29:32.554Z,99921.10
2022-11-20T16:32:01.271Z,99919.25
2022-11-20T16:34:32.733Z,99925.09
2022-11-20T16:37:02.015Z,99927.53
2022-11-20T16:39:31.327Z,99931.68
2022-11-20T16:42:05.710Z,99929.02
2022-11-20T16:44:34.915Z,99928.05
2022-11-20T16:47:03.819Z,99926.27
2022-11-20T16:49:32.707Z,99926.16
2022-11-20T16:52:02.020Z,99921.81
2022-11-20T16:54:33.579Z,99909.75
2022-11-20T16:57:02.233Z,99913.89
2022-11-20T16:59:32.184Z,99916.33
2022-11-20T17:02:01.221Z,99911.11
2022-11-20T17:04:32.209Z,99914.43
2022-11-20T17:07:07.683Z,99922.81
2022-11-20T17:09:37.140Z,99914.16
2022-11-20T17:12:07.470Z,99914.92
2022-11-20T17:14:36.309Z,99920.80
2022-11-20T17:17:05.859Z,99913.84
2022-11-20T17:19:34.777Z,99911.25
2022-11-20T17:22:04.872Z,99907.72
2022-11-20T17:24:34.662Z,99910.97
2022-11-20T17:27:04.225Z,99910.92
2022-11-20T17:29:37.849Z,99915.91
2022-11-20T17:32:11.886Z,99903.84
2022-11-20T17:34:41.130Z,99911.41
2022-11-20T17:37:10.958Z,99901.08
2022-11-20T17:39:40.425Z,99902.66
2022-11-20T17:42:32.969Z,99894.08
2022-11-20T17:45:02.251Z,99886.27
2022-11-20T17:47:42.647Z,99875.98
2022-11-20T17:50:12.492Z,99877.63
2022-11-20T17:52:45.268Z,99879.25
2022-11-20T17:55:14.331Z,99874.89
2022-11-20T17:57:52.906Z,99868.08
2022-11-20T18:00:22.367Z,99868.00
2022-11-20T18:02:51.284Z,99855.13
2022-11-20T18:05:21.947Z,99855.09
2022-11-20T18:07:54.117Z,99861.80
2022-11-20T18:10:23.653Z,99857.47
2022-11-20T18:12:54.087Z,99861.64
2022-11-20T18:15:23.805Z,99855.69
2022-11-20T18:17:52.761Z,99848.77
2022-11-20T18:20:32.007Z,99846.98
2022-11-20T18:23:02.849Z,99840.05
2022-11-20T18:25:33.957Z,99837.43
2022-11-20T18:28:04.830Z,99836.50
2022-11-20T18:30:36.490Z,99836.45
2022-11-20T18:33:06.541Z,99839.00
2022-11-20T18:35:35.825Z,99843.17
2022-11-20T18:38:04.923Z,99838.95
2022-11-20T18:40:35.856Z,99849.96
2022-11-20T18:43:24.220Z,99851.63
2022-11-20T18:46:05.479Z,99853.27
2022-11-20T18:48:36.314Z,99848.91
2022-11-20T18:51:08.284Z,99844.57
2022-11-20T18:53:40.840Z,99847.13
2022-11-20T18:56:20.003Z,99843.72
2022-11-20T18:58:49.712Z,99845.38
2022-11-20T19:01:21.721Z,99847.08
2022-11-20T19:03:52.400Z,99852.05
2022-11-20T19:06:21.796Z,99841.73
2022-11-20T19:08:51.262Z,99837.44
2022-11-20T19:11:20.147Z,99825.50
2022-11-20T19:13:59.689Z,99822.10
2022-11-20T19:16:38.607Z,99812.77
2022-11-20T19:19:07.780Z,99810.17
2022-11-20T19:21:37.983Z,99808.55
2022-11-20T19:24:08.997Z,99806.94
2022-11-20T19:26:45.858Z,99799.34
2022-11-20T19:29:17.250Z,99797.72
2022-11-20T19:31:48.422Z,99796.91
2022-11-20T19:34:17.437Z,99791.86
2022-11-20T19:36:46.710Z,99787.58
2022-11-20T19:39:16.014Z,99785.78
2022-11-20T19:41:45.012Z,99784.05
2022-11-20T19:44:17.757Z,99788.29
2022-11-20T19:46:47.459Z,99778.91
2022-11-20T19:49:16.857Z,99780.57
2022-11-20T19:51:47.667Z,99783.92
2022-11-20T19:54:18.974Z,99784.81
2022-11-20T19:56:49.239Z,99782.27
2022-11-20T19:59:18.043Z,99784.81
2022-11-20T20:01:47.044Z,99778.95
2022-11-20T20:04:15.857Z,99773.09
2022-11-20T20:06:44.752Z,99770.66
2022-11-20T20:09:18.849Z,99786.16
2022-11-20T20:11:49.088Z,99781.19
2022-11-20T20:14:21.949Z,99781.30
2022-11-20T20:16:51.548Z,99781.47
2022-11-20T20:19:23.826Z,99785.80
2022-11-20T20:21:54.699Z,99786.77
2022-11-20T20:24:28.126Z,99779.28
2022-11-20T20:27:00.489Z,99773.48
2022-11-20T20:29:29.442Z,99774.45
2022-11-20T20:32:00.342Z,99773.77
2022-11-20T20:34:31.718Z,99779.83
2022-11-20T20:37:03.958Z,99782.53
2022-11-20T20:39:34.497Z,99780.06
2022-11-20T20:42:06.747Z,99780.14
2022-11-20T20:44:57.173Z,99781.95
2022-11-20T20:47:31.171Z,99781.11
2022-11-20T20:50:00.415Z,99775.27
2022-11-20T20:52:29.404Z,99769.39
2022-11-20T20:55:00.839Z,99775.46
2022-11-20T20:57:29.986Z,99777.20
2022-11-20T20:59:59.798Z,99764.48
2022-11-20T21:02:28.976Z,99763.78
2022-11-20T21:04:59.597Z,99765.56
2022-11-20T21:07:29.836Z,99770.77
2022-11-20T21:09:59.017Z,99770.77
2022-11-20T21:12:29.999Z,99764.05
2022-11-20T21:14:59.521Z,99762.41
2022-11-20T21:17:29.400Z,99764.16
2022-11-20T21:20:00.128Z,99758.17
2022-11-20T21:22:36.221Z,99762.49
2022-11-20T21:25:09.983Z,99759.13
2022-11-20T21:28:01.163Z,99751.47
2022-11-20T21:30:30.623Z,99757.46
2022-11-20T21:33:02.607Z,99757.39
2022-11-20T21:35:35.123Z,99762.49
2022-11-20T21:38:05.096Z,99761.67
2022-11-20T21:40:36.854Z,99756.58
2022-11-20T21:43:05.885Z,99769.41
2022-11-20T21:45:35.760Z,99767.70
2022-11-20T21:48:06.300Z,99765.16
2022-11-20T21:50:38.645Z,99763.42
2022-11-20T21:53:07.552Z,99759.94
2022-11-20T21:55:36.581Z,99770.11
2022-11-20T21:58:05.631Z,99758.94
2022-11-20T22:00:36.159Z,99767.41
2022-11-20T22:03:06.107Z,99760.57
2022-11-20T22:05:35.563Z,99759.72
2022-11-20T22:08:05.169Z,99763.94
2022-11-20T22:10:36.420Z,99773.36
2022-11-20T22:13:25.423Z,99780.17
2022-11-20T22:16:02.492Z,99776.69
2022-11-20T22:18:31.694Z,99768.11
2022-11-20T22:21:06.000Z,99770.58
2022-11-20T22:23:38.558Z,99771.28
2022-11-20T22:26:09.714Z,99767.81
2022-11-20T22:28:39.308Z,99765.92
2022-11-20T22:31:12.016Z,99764.95
2022-11-20T22:33:41.398Z,99759.70
2022-11-20T22:36:13.069Z,99751.89
2022-11-20T22:38:42.971Z,99755.21
2022-11-20T22:41:13.827Z,99754.21
2022-11-20T22:43:47.294Z,99753.24
2022-11-20T22:46:18.595Z,99754.02
2022-11-20T22:48:52.820Z,99756.33
2022-11-20T22:51:24.346Z,99754.51
2022-11-20T22:53:55.420Z,99753.47
2022-11-20T22:56:24.774Z,99748.20
2022-11-20T22:58:56.270Z,99749.78
2022-11-20T23:01:30.070Z,99753.95
2022-11-20T23:04:05.523Z,99760.62
2022-11-20T23:06:36.665Z,99763.87
2022-11-20T23:09:08.344Z,99767.99
2022-11-20T23:11:37.364Z,99767.02
2022-11-20T23:14:10.384Z,99769.41
2022-11-20T23:16:42.938Z,99760.78
2022-11-20T23:19:14.217Z,99758.92
2022-11-20T23:21:43.502Z,99763.04
2022-11-20T23:24:12.363Z,99764.66
2022-11-20T23:26:44.742Z,99766.23
2022-11-20T23:29:14.874Z,99768.73
2022-11-20T23:31:47.736Z,99772.08
2022-11-20T23:34:19.035Z,99772.89
2022-11-20T23:36:49.875Z,99776.25
2022-11-20T23:39:18.734Z,99775.31
2022-11-20T23:41:47.841Z,99776.93
2022-11-20T23:44:16.901Z,99770.09
2022-11-20T23:46:50.653Z,99773.45
2022-11-20T23:49:20.190Z,99768.31
2022-11-20T23:51:48.898Z,99773.36
2022-11-20T23:54:21.324Z,99758.88
2022-11-20T23:56:50.406Z,99766.52
2022-11-20T23:59:19.527Z,99769.12
